Custom Search

Airport METAR Reports

 

YMAV - Avalon Airport, Australia
Distance from station: 0 0km
Updated: 21/02/2018 22:00
Clear
Clear
 Wind from SSE
Wind: SSE 11 km/h
Temperature: 23°C
Dew Point: 15°C
Humidity: 61%
Barometer: 1014 hPa
Clouds: Clear
Visibility: 10 km
2018/02/21 11:00 YMAV 211100Z AUTO 15006KT 9999 // NCD 23/15 Q1014
YMML - Melbourne Intl A, Australia
Distance from station: NE 50km
Updated: 21/02/2018 22:00
Clear
Clear
 Wind from NNE
Wind: NNE 7 km/h
Temperature: 23°C
Dew Point: 11°C
Humidity: 47%
Barometer: 1014 hPa
Summary: Clear
Visibility: greater than 10 km
2018/02/21 11:00 YMML 211100Z 03004KT CAVOK 23/11 Q1014
YMEN - Melbourne/Essend, Australia
Distance from station: NE 51km
Updated: 21/02/2018 22:00
Clear
Clear
 Wind from calm
Wind: Calm
Temperature: 24°C
Dew Point: 9°C
Humidity: 39%
Barometer: 1014 hPa
Clouds: Clear
Visibility: 10 km
2018/02/21 11:00 YMEN 211100Z AUTO 00000KT 9999 // NCD 24/09 Q1014
 
YWGT - Wangaratta Arp, Australia
Distance from station: NE 241km
Updated: 21/02/2018 22:00
Clear
Clear
 Wind from calm
Wind: Calm
Temperature: 19°C
Dew Point: 11°C
Humidity: 60%
Barometer: 1015 hPa
Clouds: Clear
Visibility: 10 km
2018/02/21 11:00 YWGT 211100Z AUTO 00000KT 9999 // NCD 19/11 Q1015
YMAY - Albury Airport, Australia
Distance from station: NE 308km
Updated: 21/02/2018 22:00
Clear
Clear
 Wind from calm
Wind: Calm
Temperature: 22°C
Dew Point: 11°C
Humidity: 50%
Barometer: 1014 hPa
Clouds: Clear
Visibility: 10 km
2018/02/21 11:00 YMAY 211100Z AUTO 00000KT 9999 // NCD 22/11 Q1014
YMTG - Mount Gambier, Australia
Distance from station: W 326km
Updated: 21/02/2018 22:00
Overcast
Overcast
 Wind from calm
Wind: Calm
Temperature: 20°C
Dew Point: 16°C
Humidity: 78%
Barometer: 1012 hPa
Clouds: Overcast
Visibility: 10 km
Cloud details: Partly cloudy 2256 m
Overcast 2957 m
2018/02/21 11:00 YMTG 211100Z AUTO 00000KT 9999 // SCT074 OVC097 20/16 Q1012
 
YNAR - Narrandera, Australia
Distance from station: NNE 413km
Updated: 21/02/2018 22:00

 Wind from SE
Wind: SE 7 km/h
Temperature: 25°C
Dew Point: 7°C
Humidity: 32%
Barometer: 1014 hPa
2018/02/21 11:00 YNAR 211100Z AUTO 13004KT //// // ////// 25/07 Q1014
YSWG - Wagga Wagga(Cv/M, Australia
Distance from station: NE 418km
Updated: 21/02/2018 22:00
Clear
Clear
 Wind from E
Wind: E 7 km/h
Temperature: 24°C
Dew Point: 6°C
Humidity: 31%
Barometer: 1014 hPa
Clouds: Clear
Visibility: 10 km
2018/02/21 11:00 YSWG 211100Z AUTO 08004KT 9999 // NCD 24/06 Q1014
YCOM - Cooma Snowy Mtns, Australia
Distance from station: ENE 441km
Updated: 21/02/2018 22:00
Clear
Clear
 Wind from N
Wind: N 7 km/h
Clouds: Clear
Visibility: 10 km
2018/02/21 11:00 YCOM 211100Z AUTO 01004KT 330V030 9999 // NCD 14/1
 
YGTH - Griffith Arpt, Australia
Distance from station: NNE 444km
Updated: 21/02/2018 22:00
Clear
Clear
 Wind from ESE
Wind: ESE 13 km/h
Temperature: 25°C
Dew Point: 6°C
Humidity: 30%
Barometer: 1013 hPa
Clouds: Clear
Visibility: 10 km
2018/02/21 11:00 YGTH 211100Z AUTO 12007KT 9999 // NCD 25/06 Q1013
YMLT - Launceston Airpo, Australia
Distance from station: SSE 451km
Updated: 21/02/2018 22:00
Clear
Clear
 Wind from NW
Wind: NW 17 km/h
Temperature: 14°C
Dew Point: 9°C
Humidity: 72%
Barometer: 1018 hPa
Clouds: Clear
Visibility: 10 km
2018/02/21 11:00 YMLT 211100Z AUTO 32009KT 9999 // NCD 14/09 Q1018
YMIA - Mildura Arpt, Australia
Distance from station: NNW 474km
Updated: 21/02/2018 22:00
Clear
Clear
 Wind from E
Wind: E 7 km/h
Temperature: 29°C
Dew Point: 11°C
Humidity: 33%
Barometer: 1010 hPa
Clouds: Clear
Visibility: 10 km
2018/02/21 11:00 YMIA 211100Z AUTO 09004KT 9999 // NCD 29/11 Q1010
 
YMER - Merimbula Arpt, Australia
Distance from station: ENE 494km
Updated: 21/02/2018 22:00
Clear
Clear
 Wind from NNW
Wind: NNW 7 km/h
Temperature: 17°C
Dew Point: 14°C
Humidity: 83%
Barometer: 1017 hPa
Clouds: Clear
Visibility: 10 km
2018/02/21 11:00 YMER 211100Z AUTO 34004KT 9999 // NCD 17/14 Q1017
YSCB - Canberra (civ/Mi, Australia
Distance from station: NE 518km
Updated: 21/02/2018 22:00
Clear
Clear
 Wind from ENE
Wind: ENE 11 km/h
Temperature: 19°C
Dew Point: 11°C
Humidity: 60%
Barometer: 1018 hPa
Clouds: Clear
Visibility: 10 km
2018/02/21 11:00 YSCB 211100Z AUTO 07006KT 9999 // NCD 19/11 Q1018
YMHB - Hobart/Tasmania, Australia
Distance from station: SSE 590km
Updated: 21/02/2018 22:00
Clear
Clear
 Wind from SSW
Wind: SSW 15 km/h
Temperature: 16°C
Dew Point: 11°C
Humidity: 72%
Barometer: 1018 hPa
Summary: Clear
Visibility: greater than 10 km
2018/02/21 11:00 YMHB 211100Z 20008KT CAVOK 16/11 Q1018